This is the latest recevied weather packets stored in our database for station/object VA3BOO. If no packets are shown the sender has not sent any weather packets the latest 1 day(s).
| Time | Temp. | Humidity | Pressure | Rain* | Wind** | Luminosity | Snow |
|---|---|---|---|---|---|---|---|
| 1778050503 | 6.67° C | 97% | 1009.3 hPa | 1.52 mm | 0.45 m/s, 276° | 0 W/m² | - |
| 1778050203 | 6.67° C | 97% | 1009.1 hPa | 1.52 mm | 0.45 m/s, 226° | 0 W/m² | - |
| 1778049903 | 6.67° C | 97% | 1009.2 hPa | 1.78 mm | 0.45 m/s, 187° | 0 W/m² | - |
| 1778049603 | 6.67° C | 97% | 1009.3 hPa | 1.78 mm | 0.45 m/s, 183° | 0 W/m² | - |
| 1778049303 | 6.67° C | 97% | 1009.6 hPa | 2.03 mm | 0 m/s | 0 W/m² | - |
| 1778049003 | 6.67° C | 97% | 1009.6 hPa | 1.78 mm | 0 m/s | 0 W/m² | - |
| 1778048703 | 6.67° C | 97% | 1009.5 hPa | 2.03 mm | 0 m/s | 0 W/m² | - |
| 1778048403 | 6.67° C | 97% | 1009.4 hPa | 2.29 mm | 0 m/s | 0 W/m² | - |
| 1778048104 | 6.67° C | 97% | 1009.2 hPa | 2.03 mm | 0 m/s | 0 W/m² | - |
| 1778047803 | 6.67° C | 97% | 1009.2 hPa | 1.78 mm | 0.45 m/s, 197° | 0 W/m² | - |
| 1778047503 | 6.67° C | 97% | 1009 hPa | 1.78 mm | 0.45 m/s, 177° | 0 W/m² | - |
| 1778047204 | 6.67° C | 97% | 1009.4 hPa | 1.52 mm | 0.45 m/s, 160° | 0 W/m² | - |
| 1778046903 | 6.67° C | 97% | 1009.7 hPa | 1.02 mm | 0.45 m/s, 159° | 0 W/m² | - |
| 1778046603 | 6.67° C | 96% | 1009.9 hPa | 1.02 mm | 0.45 m/s, 260° | 0 W/m² | - |
| 1778046303 | 6.67° C | 96% | 1010 hPa | 0.76 mm | 0.45 m/s, 195° | 0 W/m² | - |
| 1778046004 | 6.67° C | 96% | 1009.7 hPa | 0.76 mm | 0.45 m/s, 161° | 0 W/m² | - |
| 1778045703 | 6.67° C | 96% | 1009.8 hPa | 0.51 mm | 0 m/s | 0 W/m² | - |
| 1778045403 | 7.22° C | 96% | 1009.9 hPa | 0.51 mm | 0 m/s | 0 W/m² | - |
| 1778045103 | 7.22° C | 96% | 1009.9 hPa | 0.25 mm | 0 m/s | 0 W/m² | - |
| 1778044803 | 7.22° C | 96% | 1009.8 hPa | 0 mm | 0 m/s | 0 W/m² | - |
| 1778044503 | 7.22° C | 96% | 1010 hPa | 0 mm | 0 m/s | 0 W/m² | - |
| 1778044203 | 7.22° C | 96% | 1009.9 hPa | 0 mm | 0 m/s | 0 W/m² | - |
| 1778043903 | 7.22° C | 96% | 1010 hPa | 0 mm | 0 m/s | 0 W/m² | - |
| 1778043603 | 7.22° C | 96% | 1010 hPa | 0 mm | 0 m/s | 0 W/m² | - |
| 1778043303 | 7.22° C | 96% | 1009.8 hPa | 0 mm | 0 m/s | 0 W/m² | - |
* Rain latest hour (hover to see other rain measurements)
** Current wind speed in m/s (hover to see current wind gust speed)